createdAt,value
2023-04-02T00:02:26.751Z,96.54
2023-04-02T00:05:31.069Z,96.57
2023-04-02T00:08:00.535Z,95.03
2023-04-02T00:10:30.813Z,95.91
2023-04-02T00:13:05.715Z,96.75
2023-04-02T00:15:34.316Z,96.63
2023-04-02T00:18:02.503Z,96.51
2023-04-02T00:20:31.758Z,95.85
2023-04-02T00:22:59.437Z,97.81
2023-04-02T00:25:27.921Z,97.54
2023-04-02T00:27:55.914Z,98.36
2023-04-02T00:30:24.829Z,98.48
2023-04-02T00:32:52.784Z,98.62
2023-04-02T00:35:22.319Z,98.64
2023-04-02T00:37:50.468Z,98.85
2023-04-02T00:40:21.968Z,98.62
2023-04-02T00:42:50.277Z,99.09
2023-04-02T00:45:25.456Z,98.19
2023-04-02T00:47:53.833Z,96.99
2023-04-02T00:50:28.918Z,97.53
2023-04-02T00:52:58.217Z,96.87
2023-04-02T00:55:29.099Z,97.31
2023-04-02T00:57:57.235Z,97.11
2023-04-02T01:00:30.671Z,96.64
2023-04-02T01:03:34.259Z,96.79
2023-04-02T01:06:05.006Z,96.91
2023-04-02T01:08:45.462Z,96.91
2023-04-02T01:11:23.254Z,97.00
2023-04-02T01:13:55.232Z,98.04
2023-04-02T01:16:30.399Z,98.26
2023-04-02T01:19:03.318Z,98.13
2023-04-02T01:21:37.937Z,98.40
2023-04-02T01:24:07.100Z,97.97
2023-04-02T01:26:45.658Z,97.71
2023-04-02T01:29:15.932Z,97.25
2023-04-02T01:31:45.632Z,98.53
2023-04-02T01:34:16.374Z,98.40
2023-04-02T01:36:50.233Z,99.35
2023-04-02T01:39:26.749Z,98.68
2023-04-02T01:42:00.227Z,98.65
2023-04-02T01:44:31.900Z,98.75
2023-04-02T01:47:03.750Z,98.66
2023-04-02T01:49:31.199Z,99.01
2023-04-02T01:51:58.636Z,98.60
2023-04-02T01:54:28.784Z,99.22
2023-04-02T01:56:57.283Z,98.80
2023-04-02T01:59:24.844Z,99.11
2023-04-02T02:01:58.569Z,99.02
2023-04-02T02:04:26.258Z,99.89
2023-04-02T02:06:53.845Z,99.03
2023-04-02T02:09:24.057Z,98.84
2023-04-02T02:11:51.847Z,99.35
2023-04-02T02:14:20.912Z,99.15
2023-04-02T02:16:48.790Z,98.53
2023-04-02T02:19:25.800Z,99.25
2023-04-02T02:21:54.438Z,99.07
2023-04-02T02:24:23.359Z,98.83
2023-04-02T02:27:02.313Z,98.53
2023-04-02T02:29:30.618Z,99.06
2023-04-02T02:31:58.911Z,98.57
2023-04-02T02:34:32.556Z,97.86
2023-04-02T02:37:03.705Z,98.13
2023-04-02T02:39:36.102Z,97.82
2023-04-02T02:42:06.719Z,98.05
2023-04-02T02:44:36.266Z,98.31
2023-04-02T02:47:06.369Z,98.64
2023-04-02T02:49:37.481Z,98.23
2023-04-02T02:52:14.890Z,97.85
2023-04-02T02:54:45.315Z,97.44
2023-04-02T02:57:15.507Z,98.11
2023-04-02T02:59:43.745Z,98.20
2023-04-02T03:02:11.817Z,98.14
2023-04-02T03:04:40.630Z,98.03
2023-04-02T03:07:09.199Z,98.81
2023-04-02T03:09:40.237Z,98.68
2023-04-02T03:12:22.259Z,98.15
2023-04-02T03:14:54.310Z,98.51
2023-04-02T03:17:24.969Z,98.16
2023-04-02T03:19:56.867Z,97.76
2023-04-02T03:22:29.701Z,98.40
2023-04-02T03:25:00.789Z,97.76
2023-04-02T03:27:32.326Z,97.72
2023-04-02T03:30:06.703Z,97.93
2023-04-02T03:32:36.721Z,98.00
2023-04-02T03:35:18.975Z,98.81
2023-04-02T03:37:49.293Z,97.80
2023-04-02T03:40:18.824Z,98.23
2023-04-02T03:42:50.721Z,98.47
2023-04-02T03:45:21.337Z,98.87
2023-04-02T03:47:54.238Z,98.21
2023-04-02T03:50:27.830Z,98.08
2023-04-02T03:52:55.615Z,97.81
2023-04-02T03:55:25.956Z,96.81
2023-04-02T03:57:58.616Z,96.62
2023-04-02T04:00:34.178Z,96.95
2023-04-02T04:03:08.139Z,96.91
2023-04-02T04:05:38.707Z,97.56
2023-04-02T04:08:08.541Z,97.01
2023-04-02T04:10:36.393Z,96.87
2023-04-02T04:13:06.910Z,97.82
2023-04-02T04:15:36.615Z,96.57
2023-04-02T04:18:11.473Z,95.85
2023-04-02T04:20:45.905Z,96.33
2023-04-02T04:23:19.907Z,95.68
2023-04-02T04:25:49.350Z,95.77
2023-04-02T04:28:24.071Z,95.90
2023-04-02T04:30:54.124Z,96.19
2023-04-02T04:33:24.534Z,95.63
2023-04-02T04:35:56.108Z,95.26
2023-04-02T04:38:32.642Z,95.89
2023-04-02T04:41:04.229Z,95.46
2023-04-02T04:43:38.542Z,95.96
2023-04-02T04:46:09.425Z,96.45
2023-04-02T04:48:38.144Z,95.84
2023-04-02T04:51:10.231Z,96.14
2023-04-02T04:53:47.366Z,95.90
2023-04-02T04:56:19.803Z,96.60
2023-04-02T04:58:50.046Z,96.00
2023-04-02T05:01:20.791Z,96.92
2023-04-02T05:03:53.073Z,96.77
2023-04-02T05:06:27.011Z,97.21
2023-04-02T05:08:56.772Z,97.19
2023-04-02T05:11:27.656Z,97.35
2023-04-02T05:13:57.979Z,97.27
2023-04-02T05:16:27.637Z,97.28
2023-04-02T05:18:59.206Z,97.06
2023-04-02T05:21:34.270Z,96.53
2023-04-02T05:24:14.797Z,96.53
2023-04-02T05:26:44.980Z,96.98
2023-04-02T05:29:17.075Z,96.72
2023-04-02T05:31:48.677Z,96.79
2023-04-02T05:34:23.479Z,96.96
2023-04-02T05:36:52.389Z,97.07
2023-04-02T05:39:23.082Z,96.99
2023-04-02T05:41:58.828Z,97.56
2023-04-02T05:44:28.143Z,97.03
2023-04-02T05:46:58.364Z,96.59
2023-04-02T05:49:28.604Z,97.33
2023-04-02T05:51:59.826Z,97.08
2023-04-02T05:54:30.226Z,97.08
2023-04-02T05:57:01.880Z,96.41
2023-04-02T05:59:31.265Z,95.75
2023-04-02T06:02:03.426Z,96.10
2023-04-02T06:04:34.243Z,95.80
2023-04-02T06:07:07.049Z,95.96
2023-04-02T06:09:41.489Z,95.20
2023-04-02T06:12:18.597Z,93.60
2023-04-02T06:14:46.636Z,93.36
2023-04-02T06:17:16.172Z,91.71
2023-04-02T06:19:43.936Z,91.87
2023-04-02T06:22:20.185Z,92.81
2023-04-02T06:24:51.358Z,93.67
2023-04-02T06:27:22.589Z,93.70
2023-04-02T06:29:52.826Z,94.98
2023-04-02T06:32:22.144Z,95.43
2023-04-02T06:34:49.773Z,96.45
2023-04-02T06:37:23.331Z,94.43
2023-04-02T06:39:50.785Z,96.15
2023-04-02T06:42:20.789Z,96.53
2023-04-02T06:44:48.396Z,96.75
2023-04-02T06:47:23.722Z,97.80
2023-04-02T06:49:53.659Z,97.65
2023-04-02T06:52:27.017Z,98.71
2023-04-02T06:54:54.525Z,97.28
2023-04-02T06:57:22.030Z,97.80
2023-04-02T06:59:49.676Z,97.23
2023-04-02T07:02:29.323Z,97.00
2023-04-02T07:05:02.841Z,97.72
2023-04-02T07:07:32.132Z,98.20
2023-04-02T07:09:59.604Z,98.65
2023-04-02T07:12:27.641Z,99.02
2023-04-02T07:14:55.408Z,98.72
2023-04-02T07:17:22.923Z,98.78
2023-04-02T07:19:50.624Z,98.77
2023-04-02T07:22:18.463Z,97.84
2023-04-02T07:24:47.480Z,98.39
2023-04-02T07:27:15.972Z,98.35
2023-04-02T07:29:43.536Z,98.53
2023-04-02T07:32:11.661Z,98.50
2023-04-02T07:34:39.206Z,98.07
2023-04-02T07:37:06.863Z,98.15
2023-04-02T07:39:36.540Z,98.49
2023-04-02T07:42:07.888Z,98.36
2023-04-02T07:44:35.730Z,97.50
2023-04-02T07:47:03.360Z,97.34
2023-04-02T07:49:30.922Z,96.75
2023-04-02T07:51:58.420Z,97.08
2023-04-02T07:54:27.069Z,96.91
2023-04-02T07:56:54.699Z,97.46
2023-04-02T07:59:23.605Z,97.57
2023-04-02T08:01:53.008Z,95.82
2023-04-02T08:04:22.057Z,95.97
2023-04-02T08:06:50.464Z,95.73
2023-04-02T08:09:19.134Z,96.35
2023-04-02T08:11:46.790Z,96.94
2023-04-02T08:14:14.949Z,96.27
2023-04-02T08:16:48.686Z,95.89
2023-04-02T08:19:16.557Z,96.07
2023-04-02T08:21:44.116Z,95.96
2023-04-02T08:24:11.643Z,95.65
2023-04-02T08:26:39.266Z,96.61
2023-04-02T08:29:06.717Z,96.61
2023-04-02T08:31:34.312Z,95.18
2023-04-02T08:34:03.281Z,95.45
2023-04-02T08:36:32.153Z,95.16
2023-04-02T08:38:59.717Z,95.17
2023-04-02T08:41:28.504Z,95.24
2023-04-02T08:44:10.017Z,95.94
2023-04-02T08:46:42.299Z,95.52
2023-04-02T08:49:14.010Z,95.36
2023-04-02T08:51:41.628Z,95.34
2023-04-02T08:54:17.352Z,95.03
2023-04-02T08:56:50.174Z,94.20
2023-04-02T08:59:24.447Z,93.87
2023-04-02T09:01:57.452Z,94.98
2023-04-02T09:04:26.583Z,94.24
2023-04-02T09:06:56.618Z,94.60
2023-04-02T09:09:24.765Z,94.68
2023-04-02T09:11:55.310Z,94.56
2023-04-02T09:14:26.325Z,94.68
2023-04-02T09:16:55.304Z,94.27
2023-04-02T09:19:24.650Z,94.05
2023-04-02T09:22:08.957Z,92.84
2023-04-02T09:24:37.501Z,91.58
2023-04-02T09:27:05.029Z,91.77
2023-04-02T09:29:46.340Z,91.02
2023-04-02T09:32:28.760Z,90.80
2023-04-02T09:35:24.788Z,91.15
2023-04-02T09:38:17.411Z,91.03
2023-04-02T09:40:47.677Z,90.62
2023-04-02T09:43:17.530Z,90.13
2023-04-02T09:45:46.037Z,90.02
2023-04-02T09:48:22.808Z,89.61
2023-04-02T09:50:50.426Z,88.97
2023-04-02T09:53:29.324Z,87.42
2023-04-02T09:56:10.602Z,88.39
2023-04-02T09:58:38.214Z,88.04
2023-04-02T10:01:08.458Z,88.02
2023-04-02T10:03:36.572Z,87.77
2023-04-02T10:06:11.342Z,87.05
2023-04-02T10:08:42.276Z,87.48
2023-04-02T10:11:11.982Z,85.70
2023-04-02T10:13:44.841Z,85.55
2023-04-02T10:16:14.438Z,85.32
2023-04-02T10:18:46.531Z,85.17
2023-04-02T10:21:17.074Z,85.73
2023-04-02T10:23:46.347Z,82.70
2023-04-02T10:26:23.713Z,83.27
2023-04-02T10:29:06.763Z,83.81
2023-04-02T10:31:41.026Z,81.72
2023-04-02T10:34:14.013Z,81.15
2023-04-02T10:36:50.513Z,80.99
2023-04-02T10:39:21.258Z,80.78
2023-04-02T10:41:53.269Z,80.72
2023-04-02T10:44:31.120Z,79.75
2023-04-02T10:47:15.874Z,80.71
2023-04-02T10:49:44.715Z,80.63
2023-04-02T10:52:17.538Z,80.96
2023-04-02T10:54:50.572Z,81.36
2023-04-02T10:57:25.941Z,80.25
2023-04-02T10:59:57.408Z,79.55
2023-04-02T11:02:35.933Z,80.72
2023-04-02T11:05:11.827Z,80.25
2023-04-02T11:07:50.855Z,79.94
2023-04-02T11:10:20.755Z,79.69
2023-04-02T11:12:53.255Z,79.20
2023-04-02T11:15:20.928Z,78.80
2023-04-02T11:17:49.013Z,78.50
2023-04-02T11:20:57.195Z,77.90
2023-04-02T11:23:28.333Z,77.80
2023-04-02T11:26:31.028Z,78.98
2023-04-02T11:29:26.014Z,79.60
2023-04-02T11:32:21.689Z,80.20
2023-04-02T11:35:20.728Z,80.13
2023-04-02T11:37:48.265Z,80.29
2023-04-02T11:40:42.043Z,80.67
2023-04-02T11:43:47.007Z,80.77
2023-04-02T11:46:49.010Z,80.53
2023-04-02T11:49:41.975Z,79.52
2023-04-02T11:52:22.669Z,79.43
2023-04-02T11:54:57.755Z,79.77
2023-04-02T11:57:35.640Z,79.60
2023-04-02T12:00:18.170Z,79.98
2023-04-02T12:02:59.547Z,78.80
2023-04-02T12:05:28.481Z,78.62
2023-04-02T12:08:07.414Z,77.71
2023-04-02T12:10:51.422Z,77.46
2023-04-02T12:13:20.669Z,78.12
2023-04-02T12:15:48.767Z,77.03
2023-04-02T12:18:20.698Z,76.98
2023-04-02T12:20:50.866Z,77.59
2023-04-02T12:23:24.033Z,77.40
2023-04-02T12:25:58.282Z,77.85
2023-04-02T12:28:28.893Z,77.99
2023-04-02T12:31:04.457Z,76.68
2023-04-02T12:33:37.277Z,77.26
2023-04-02T12:36:09.809Z,75.15
2023-04-02T12:38:45.223Z,75.83
2023-04-02T12:41:24.037Z,75.75
2023-04-02T12:43:58.475Z,75.92
2023-04-02T12:46:26.826Z,75.35
2023-04-02T12:48:56.777Z,75.70
2023-04-02T12:51:25.324Z,76.32
2023-04-02T12:53:54.324Z,76.62
2023-04-02T12:56:23.070Z,76.60
2023-04-02T12:58:54.831Z,76.96
2023-04-02T13:01:24.609Z,76.92
2023-04-02T13:04:04.637Z,77.28
2023-04-02T13:06:32.794Z,76.96
2023-04-02T13:09:01.262Z,77.24
2023-04-02T13:11:36.633Z,76.19
2023-04-02T13:14:05.848Z,75.91
2023-04-02T13:16:37.469Z,76.02
2023-04-02T13:19:22.722Z,76.30
2023-04-02T13:21:50.359Z,77.17
2023-04-02T13:24:19.852Z,77.34
2023-04-02T13:26:49.415Z,76.98
2023-04-02T13:29:26.314Z,77.00
2023-04-02T13:31:55.663Z,76.83
2023-04-02T13:34:24.820Z,76.78
2023-04-02T13:36:52.474Z,77.66
2023-04-02T13:39:20.459Z,77.19
2023-04-02T13:41:50.022Z,76.72
2023-04-02T13:44:22.828Z,77.13
2023-04-02T13:46:50.905Z,77.67
2023-04-02T13:49:18.876Z,77.51
2023-04-02T13:51:49.634Z,77.23
2023-04-02T13:54:22.307Z,76.20
2023-04-02T13:56:49.879Z,77.11
2023-04-02T13:59:17.456Z,76.96
2023-04-02T14:01:46.353Z,77.31
2023-04-02T14:04:16.318Z,77.19
2023-04-02T14:07:07.515Z,76.72
2023-04-02T14:09:40.343Z,77.19
2023-04-02T14:12:12.377Z,77.29
2023-04-02T14:14:56.175Z,75.97
2023-04-02T14:17:30.774Z,76.20
2023-04-02T14:20:13.478Z,76.33
2023-04-02T14:22:50.605Z,76.17
2023-04-02T14:25:25.834Z,76.10
2023-04-02T14:27:58.768Z,76.44
2023-04-02T14:30:28.657Z,76.53
2023-04-02T14:32:59.103Z,75.92
2023-04-02T14:35:30.564Z,76.10
2023-04-02T14:38:06.058Z,75.82
2023-04-02T14:40:37.519Z,76.12
2023-04-02T14:43:08.330Z,76.24
2023-04-02T14:45:48.292Z,76.54
2023-04-02T14:48:25.699Z,76.50
2023-04-02T14:50:56.456Z,76.43
2023-04-02T14:53:28.559Z,76.54
2023-04-02T14:55:57.204Z,76.44
2023-04-02T14:58:27.785Z,76.40
2023-04-02T15:00:59.034Z,76.70
2023-04-02T15:03:30.813Z,76.26
2023-04-02T15:06:00.193Z,77.14
2023-04-02T15:08:30.972Z,77.25
2023-04-02T15:11:05.698Z,77.03
2023-04-02T15:13:37.991Z,76.84
2023-04-02T15:16:11.568Z,76.79
2023-04-02T15:18:39.323Z,75.37
2023-04-02T15:21:16.495Z,76.59
2023-04-02T15:23:54.826Z,75.06
2023-04-02T15:26:27.099Z,75.52
2023-04-02T15:29:01.002Z,75.55
2023-04-02T15:31:29.280Z,75.18
2023-04-02T15:34:09.083Z,75.07
2023-04-02T15:37:09.179Z,75.05
2023-04-02T15:39:59.511Z,74.97
2023-04-02T15:42:29.255Z,74.56
2023-04-02T15:45:25.581Z,74.82
2023-04-02T15:48:14.879Z,75.67
2023-04-02T15:50:48.162Z,75.73
2023-04-02T15:53:27.817Z,75.31
2023-04-02T15:56:03.177Z,74.70
2023-04-02T15:58:44.298Z,75.70
2023-04-02T16:01:16.314Z,74.88
2023-04-02T16:04:07.789Z,75.08
2023-04-02T16:06:43.322Z,74.43
2023-04-02T16:09:19.454Z,74.85
2023-04-02T16:11:48.779Z,73.88
2023-04-02T16:14:25.629Z,74.39
2023-04-02T16:16:54.713Z,73.22
2023-04-02T16:19:27.348Z,74.28
2023-04-02T16:22:02.432Z,72.91
2023-04-02T16:24:29.911Z,73.95
2023-04-02T16:27:04.669Z,72.57
2023-04-02T16:29:53.380Z,72.47
2023-04-02T16:32:35.899Z,71.74
2023-04-02T16:35:33.432Z,72.96
2023-04-02T16:38:07.738Z,71.88
2023-04-02T16:40:45.165Z,71.87
2023-04-02T16:43:26.019Z,71.16
2023-04-02T16:45:57.740Z,71.12
2023-04-02T16:48:30.789Z,71.05
2023-04-02T16:51:06.928Z,70.96
2023-04-02T16:53:50.952Z,70.06
2023-04-02T16:56:41.515Z,70.35
2023-04-02T16:59:16.698Z,69.77
2023-04-02T17:01:48.992Z,70.40
2023-04-02T17:04:29.087Z,69.88
2023-04-02T17:07:01.899Z,69.45
2023-04-02T17:09:35.424Z,69.69
2023-04-02T17:12:06.122Z,69.26
2023-04-02T17:14:39.308Z,69.60
2023-04-02T17:17:06.835Z,70.04
2023-04-02T17:19:34.350Z,69.07
2023-04-02T17:22:03.414Z,68.24
2023-04-02T17:24:34.748Z,67.97
2023-04-02T17:27:08.224Z,68.52
2023-04-02T17:29:39.243Z,68.38
2023-04-02T17:32:14.895Z,67.65
2023-04-02T17:34:42.309Z,67.73
2023-04-02T17:37:19.153Z,67.77
2023-04-02T17:39:53.726Z,67.37
2023-04-02T17:42:26.469Z,68.22
2023-04-02T17:45:02.896Z,67.07
2023-04-02T17:47:36.790Z,68.47
2023-04-02T17:50:40.266Z,66.92
2023-04-02T17:53:18.870Z,67.22
2023-04-02T17:55:53.839Z,67.57
2023-04-02T17:58:36.650Z,67.73
2023-04-02T18:01:08.144Z,67.08
2023-04-02T18:03:49.117Z,66.97
2023-04-02T18:06:20.863Z,68.88
2023-04-02T18:08:58.469Z,68.06
2023-04-02T18:11:32.555Z,67.01
2023-04-02T18:14:01.225Z,67.31
2023-04-02T18:16:49.514Z,66.96
2023-04-02T18:19:19.002Z,66.73
2023-04-02T18:21:52.214Z,65.61
2023-04-02T18:24:43.257Z,65.93
2023-04-02T18:27:22.497Z,64.99
2023-04-02T18:29:56.301Z,65.38
2023-04-02T18:32:56.781Z,65.76
2023-04-02T18:35:26.578Z,66.26
2023-04-02T18:38:07.778Z,65.46
2023-04-02T18:40:41.839Z,65.68
2023-04-02T18:43:19.984Z,65.02
2023-04-02T18:45:56.985Z,65.08
2023-04-02T18:48:35.366Z,64.51
2023-04-02T18:51:04.319Z,64.72
2023-04-02T18:53:33.730Z,64.21
2023-04-02T18:56:04.713Z,64.83
2023-04-02T18:58:37.322Z,64.54
2023-04-02T19:01:05.651Z,65.44
2023-04-02T19:03:39.215Z,65.08
2023-04-02T19:06:10.397Z,65.48
2023-04-02T19:08:42.912Z,66.20
2023-04-02T19:11:13.815Z,64.52
2023-04-02T19:13:41.510Z,65.33
2023-04-02T19:16:22.653Z,65.92
2023-04-02T19:18:57.384Z,65.30
2023-04-02T19:21:34.979Z,66.05
2023-04-02T19:24:12.235Z,65.95
2023-04-02T19:26:45.310Z,67.35
2023-04-02T19:29:21.262Z,67.07
2023-04-02T19:31:51.067Z,66.89
2023-04-02T19:34:24.399Z,66.52
2023-04-02T19:36:55.568Z,67.06
2023-04-02T19:39:39.514Z,65.31
2023-04-02T19:42:11.983Z,66.39
2023-04-02T19:44:44.030Z,65.89
2023-04-02T19:47:13.481Z,65.65
2023-04-02T19:49:42.305Z,64.54
2023-04-02T19:52:09.784Z,64.31
2023-04-02T19:54:38.450Z,64.57
2023-04-02T19:57:06.375Z,64.49
2023-04-02T19:59:34.089Z,64.77
2023-04-02T20:02:05.704Z,65.36
2023-04-02T20:04:33.324Z,65.26
2023-04-02T20:07:02.153Z,65.60
2023-04-02T20:09:30.130Z,65.75
2023-04-02T20:11:57.602Z,65.81
2023-04-02T20:14:25.122Z,65.34
2023-04-02T20:16:52.796Z,65.21
2023-04-02T20:19:20.592Z,64.78
2023-04-02T20:21:48.093Z,65.41
2023-04-02T20:24:16.936Z,65.62
2023-04-02T20:26:44.396Z,64.90
2023-04-02T20:29:11.892Z,64.65
2023-04-02T20:31:39.421Z,65.28
2023-04-02T20:34:08.518Z,66.16
2023-04-02T20:36:36.365Z,64.78
2023-04-02T20:39:07.105Z,64.77
2023-04-02T20:41:35.930Z,65.75
2023-04-02T20:44:03.397Z,66.35
2023-04-02T20:46:31.078Z,67.30
2023-04-02T20:48:58.585Z,66.80
2023-04-02T20:51:26.406Z,65.78
2023-04-02T20:53:53.992Z,66.83
2023-04-02T20:56:23.229Z,66.53
2023-04-02T20:58:52.060Z,66.42
2023-04-02T21:01:21.165Z,66.88
2023-04-02T21:03:49.190Z,67.67
2023-04-02T21:06:18.978Z,67.02
2023-04-02T21:08:46.784Z,67.99
2023-04-02T21:11:14.384Z,67.38
2023-04-02T21:13:44.026Z,68.26
2023-04-02T21:16:17.062Z,67.17
2023-04-02T21:18:44.995Z,67.64
2023-04-02T21:21:14.238Z,67.41
2023-04-02T21:23:42.577Z,67.94
2023-04-02T21:26:12.567Z,68.30
2023-04-02T21:28:40.332Z,67.85
2023-04-02T21:31:10.678Z,67.76
2023-04-02T21:33:41.267Z,67.37
2023-04-02T21:36:10.279Z,67.75
2023-04-02T21:38:38.446Z,68.20
2023-04-02T21:41:14.595Z,67.85
2023-04-02T21:43:42.254Z,67.76
2023-04-02T21:46:10.311Z,67.65
2023-04-02T21:48:40.516Z,68.32
2023-04-02T21:51:09.544Z,68.20
2023-04-02T21:53:37.406Z,68.94
2023-04-02T21:56:06.337Z,69.28
2023-04-02T21:58:33.998Z,69.11
2023-04-02T22:01:01.871Z,68.04
2023-04-02T22:03:31.936Z,69.15
2023-04-02T22:06:06.698Z,68.31
2023-04-02T22:08:34.661Z,68.75
2023-04-02T22:11:07.361Z,69.15
2023-04-02T22:13:34.878Z,68.83
2023-04-02T22:16:05.681Z,69.69
2023-04-02T22:18:34.997Z,69.28
2023-04-02T22:21:03.909Z,69.65
2023-04-02T22:23:31.430Z,69.17
2023-04-02T22:25:59.849Z,68.89
2023-04-02T22:28:28.176Z,68.95
2023-04-02T22:30:56.219Z,70.71
2023-04-02T22:33:23.782Z,69.68
2023-04-02T22:35:52.354Z,69.48
2023-04-02T22:38:21.240Z,69.67
2023-04-02T22:40:48.697Z,69.40
2023-04-02T22:43:16.228Z,69.65
2023-04-02T22:45:45.483Z,69.58
2023-04-02T22:48:12.927Z,69.56
2023-04-02T22:50:40.550Z,70.12
2023-04-02T22:53:08.047Z,69.63
2023-04-02T22:55:36.870Z,69.49
2023-04-02T22:58:04.291Z,69.06
2023-04-02T23:00:31.852Z,68.73
2023-04-02T23:02:59.399Z,69.74
2023-04-02T23:05:27.136Z,69.80
2023-04-02T23:07:54.724Z,69.85
2023-04-02T23:10:22.250Z,68.48
2023-04-02T23:12:51.133Z,68.52
2023-04-02T23:15:18.706Z,69.32
2023-04-02T23:17:46.212Z,69.33
2023-04-02T23:20:14.042Z,69.14
2023-04-02T23:22:41.550Z,70.04
2023-04-02T23:25:09.322Z,70.32
2023-04-02T23:27:36.968Z,69.94
2023-04-02T23:30:08.664Z,69.40
2023-04-02T23:32:36.168Z,69.83
2023-04-02T23:35:03.650Z,69.85
2023-04-02T23:37:31.270Z,69.28
2023-04-02T23:39:58.739Z,69.77
2023-04-02T23:42:27.237Z,69.41
2023-04-02T23:44:55.485Z,70.42
2023-04-02T23:47:24.271Z,69.34
2023-04-02T23:49:51.730Z,70.04
2023-04-02T23:52:19.350Z,70.67
2023-04-02T23:54:46.766Z,69.85
2023-04-02T23:57:14.971Z,71.54
2023-04-02T23:59:42.574Z,70.89
